KJER

Details ICAO KJER
Name JEROME CO
Region United States
Timezone America/Boise (UTC-6.0)
Plans Departing 2
Arriving 1
Stats Elevation 4,053 ft / 1,235 m (AMSL)
Location 42.726682° -114.456644°
Runways 1
Magnetic Variation 12.598° E
Sunrise 2018-05-25 12:07:59 UTC / 2018-05-25 06:07:59 Local
Sunset 2018-05-26 03:04:29 UTC / 2018-05-25 21:04:29 Local
Advertisement - Login to hide

Runways

ID Width Length Bearing (true) Bearing (mag) Surface Threshold Offset Overrun Length
08 75 ft / 23 m 4,988 ft / 1,520 m 100.12° 87.52° Asphalt 0 ft / 0 m 0 ft / 0 m
26 75 ft / 23 m 4,988 ft / 1,520 m 280.13° 267.53° Asphalt 0 ft / 0 m 0 ft / 0 m

Map

Weather


0- 5 10 15 20 25 30 35+ Temperature / ° C

Clouds and Precipitation
Forecast for 2018-05-26 00:00 UTC. Updated 2 hours ago

Ground ~20,000 ft ~40,000 ft Winds

METAR

KJER 252353Z AUTO 15014G19KT 10SM CLR 29/01 A2977 RMK AO2 SLP042 T02940006 10306 20250 56026

TAF

TAF KJER 252336Z 2600/2624 13012G20KT P6SM SCT150 FM260400 20010KT P6SM BKN150 FM261800 25010G15KT P6SM BKN150

Frequencies

Recorded 135.22 MHz ASOS
Approach 126.70 MHz TWIN FALLS APP/DEP
Unicom 122.80 MHz CTAF/UNICOM
Warning: Do not use this data for real-world aviation or navigation. No guarantee of current accuracy is given.